Time;durP1;ratioP1;P1;durP2;ratioP2;P2;SDS_P1;SDS_P2;PMS_P1;PMS_P2;Temp;Humidity;BMP_temperature;BMP_pressure;BME280_temperature;BME280_humidity;BME280_pressure;Samples;Min_cycle;Max_cycle;Signal;HPM_P1;HPM_P2
2023/10/14 00:01:27;;;;;;;4.97;3.50;;;16.90;63.50;15.90;95981.00;;;;5102934;28;20200;-81
2023/10/14 00:03:56;;;;;;;3.50;3.20;;;16.90;63.40;15.90;95982.00;;;;5101808;28;20750;-82
2023/10/14 00:06:26;;;;;;;4.60;3.30;;;16.90;64.20;15.80;95972.00;;;;5100634;28;20219;-82
2023/10/14 00:08:57;;;;;;;4.17;3.67;;;16.90;63.50;15.80;95970.00;;;;5100863;28;20293;-81
2023/10/14 00:11:27;;;;;;;4.03;3.10;;;16.90;63.60;15.80;95973.00;;;;5099915;28;20233;-81
2023/10/14 00:13:56;;;;;;;5.03;3.30;;;16.80;63.50;15.80;95967.00;;;;5099856;28;20191;-82
2023/10/14 00:16:35;;;;;;;4.50;3.00;;;16.80;63.50;15.80;95964.00;;;;5099396;28;20227;-81
2023/10/14 00:19:05;;;;;;;4.80;3.07;;;16.80;63.50;15.80;95958.00;;;;5095462;28;20217;-82
2023/10/14 00:21:34;;;;;;;4.70;3.00;;;16.80;63.60;15.70;95966.00;;;;5098613;28;20267;-82
2023/10/14 00:24:06;;;;;;;5.10;3.83;;;16.80;63.70;15.70;95965.00;;;;5132000;27;20225;-81
2023/10/14 00:26:35;;;;;;;3.87;3.13;;;16.80;63.60;15.70;95967.00;;;;5099493;28;20227;-82
2023/10/14 00:29:19;;;;;;;3.37;3.07;;;16.80;63.60;15.70;95962.00;;;;5101031;28;20201;-81
2023/10/14 00:31:49;;;;;;;3.60;3.13;;;16.80;63.70;15.70;95964.00;;;;5101456;28;20248;-81
2023/10/14 00:34:21;;;;;;;3.40;3.10;;;16.70;63.70;15.70;95959.00;;;;5103401;28;20199;-81
2023/10/14 00:36:49;;;;;;;3.57;2.67;;;16.70;63.80;15.70;95964.00;;;;5103745;28;20311;-81
2023/10/14 00:39:16;;;;;;;4.30;3.10;;;16.70;63.70;15.70;95954.00;;;;5103429;28;20200;-81
2023/10/14 00:41:49;;;;;;;2.83;2.50;;;16.70;63.80;15.60;95947.00;;;;5104511;28;20664;-81
2023/10/14 00:44:18;;;;;;;5.37;3.53;;;16.70;64.70;15.60;95942.00;;;;5104290;28;20215;-81
2023/10/14 00:46:49;;;;;;;3.47;3.10;;;16.70;63.80;15.60;95945.00;;;;5105573;28;20298;-80
2023/10/14 00:49:21;;;;;;;4.30;3.00;;;16.70;63.90;15.60;95942.00;;;;5103865;28;20192;-81
2023/10/14 00:51:53;;;;;;;6.13;2.90;;;16.70;64.00;15.60;95947.00;;;;5105403;28;20568;-81
2023/10/14 00:54:40;;;;;;;2.60;2.37;;;16.60;63.80;15.60;95944.00;;;;5106546;28;20200;-81
2023/10/14 00:57:20;;;;;;;3.37;2.77;;;16.70;63.90;15.60;95940.00;;;;5104001;28;20225;-81
2023/10/14 00:59:51;;;;;;;3.50;3.10;;;16.70;63.80;15.60;95943.00;;;;5107849;28;20573;-81
2023/10/14 01:02:27;;;;;;;3.13;2.50;;;16.70;63.80;15.60;95944.00;;;;5107435;28;20232;-81
2023/10/14 01:05:06;;;;;;;3.60;3.20;;;16.60;64.50;15.50;95945.00;;;;5105678;28;20223;-81
2023/10/14 01:07:34;;;;;;;3.10;2.80;;;16.60;63.80;15.60;95946.00;;;;5106723;28;20221;-82
2023/10/14 01:10:05;;;;;;;3.43;2.87;;;16.60;63.80;15.50;95940.00;;;;5104708;28;20204;-81
2023/10/14 01:12:39;;;;;;;3.73;2.83;;;16.60;63.80;15.50;95938.00;;;;5103418;28;20718;-82
2023/10/14 01:15:17;;;;;;;4.23;2.80;;;16.60;63.80;15.50;95945.00;;;;5101501;28;20632;-82
2023/10/14 01:17:45;;;;;;;3.10;2.40;;;16.60;64.70;15.50;95945.00;;;;5102338;28;20654;-81
2023/10/14 01:20:26;;;;;;;4.17;2.63;;;16.60;63.80;15.50;95940.00;;;;5103875;28;20203;-81
2023/10/14 01:22:58;;;;;;;2.87;2.60;;;16.60;63.90;15.50;95937.00;;;;5104591;28;20207;-80
2023/10/14 01:25:32;;;;;;;3.27;2.60;;;16.60;63.90;15.50;95931.00;;;;5100082;28;20756;-81
2023/10/14 01:28:10;;;;;;;2.97;2.67;;;16.60;63.90;15.50;95926.00;;;;5101801;28;20252;-81
2023/10/14 01:30:52;;;;;;;3.23;2.93;;;16.60;64.00;15.50;95921.00;;;;5098780;28;20557;-81
2023/10/14 01:33:24;;;;;;;4.10;2.40;;;16.60;64.20;15.50;95921.00;;;;5100120;28;20199;-82
2023/10/14 01:35:52;;;;;;;3.93;2.53;;;16.60;64.10;15.50;95917.00;;;;5101390;28;20229;-81
2023/10/14 01:38:24;;;;;;;4.63;2.37;;;16.50;64.10;15.50;95912.00;;;;5100741;28;20207;-81
2023/10/14 01:40:52;;;;;;;2.40;2.20;;;16.60;64.40;15.60;95907.00;;;;5101610;28;20195;-81
2023/10/14 01:43:24;;;;;;;4.23;2.40;;;16.50;64.90;15.60;95910.00;;;;5101214;28;20237;-82
2023/10/14 01:46:00;;;;;;;3.27;2.20;;;16.50;64.70;15.60;95908.00;;;;5102060;28;20273;-81
2023/10/14 01:48:31;;;;;;;2.50;2.30;;;16.60;64.90;15.70;95916.00;;;;5102160;28;20198;-81
2023/10/14 01:50:59;;;;;;;2.50;2.17;;;16.60;64.90;15.70;95910.00;;;;5101113;28;20229;-81
2023/10/14 01:53:32;;;;;;;2.97;2.10;;;16.60;64.90;15.70;95914.00;;;;5100613;28;20195;-81
2023/10/14 01:56:01;;;;;;;2.30;2.10;;;16.70;65.80;15.80;95909.00;;;;5099512;28;20225;-80
2023/10/14 01:58:33;;;;;;;3.70;2.07;;;16.70;65.10;15.80;95907.00;;;;5101863;28;20206;-82
2023/10/14 02:01:07;;;;;;;2.77;2.03;;;16.70;65.10;15.90;95905.00;;;;5098182;28;20703;-81
2023/10/14 02:03:41;;;;;;;2.10;1.80;;;16.70;65.20;15.90;95906.00;;;;5098218;28;20202;-83
2023/10/14 02:06:16;;;;;;;3.37;2.10;;;16.80;65.10;16.00;95899.00;;;;5100853;28;20230;-80
2023/10/14 02:08:45;;;;;;;2.77;2.20;;;16.80;65.00;16.10;95900.00;;;;5098400;28;20248;-80
2023/10/14 02:11:15;;;;;;;2.43;2.23;;;16.90;65.70;16.10;95901.00;;;;5101417;28;20656;-81
2023/10/14 02:13:43;;;;;;;2.57;1.97;;;17.00;64.80;16.20;95900.00;;;;5101130;28;20191;-82
2023/10/14 02:16:11;;;;;;;4.13;1.70;;;17.00;65.30;16.30;95894.00;;;;5099330;28;20224;-80
2023/10/14 02:18:38;;;;;;;2.47;1.90;;;17.10;64.40;16.40;95891.00;;;;5101115;28;20194;-81
2023/10/14 02:21:11;;;;;;;2.33;2.13;;;17.20;64.40;16.60;95895.00;;;;5102559;28;20746;-81
2023/10/14 02:23:47;;;;;;;3.70;2.07;;;17.30;64.20;16.60;95900.00;;;;5100424;28;20819;-81
2023/10/14 02:26:22;;;;;;;3.63;1.90;;;17.40;64.30;16.70;95902.00;;;;5103459;28;20252;-80
2023/10/14 02:28:52;;;;;;;4.13;1.67;;;17.50;64.00;16.80;95898.00;;;;5103387;28;20218;-81
2023/10/14 02:31:28;;;;;;;2.10;1.83;;;17.60;64.50;16.90;95905.00;;;;5103734;28;20225;-81
2023/10/14 02:33:57;;;;;;;3.20;2.10;;;17.60;63.40;17.10;95901.00;;;;5103947;28;20198;-80
2023/10/14 02:36:29;;;;;;;5.13;1.83;;;17.80;63.40;17.20;95910.00;;;;5104070;28;20250;-80
2023/10/14 02:38:58;;;;;;;2.40;1.70;;;17.80;63.20;17.30;95904.00;;;;5102721;28;20207;-81
2023/10/14 02:41:31;;;;;;;2.10;1.40;;;18.00;63.00;17.40;95904.00;;;;5104448;28;20203;-81
2023/10/14 02:44:19;;;;;;;3.03;1.60;;;18.00;62.70;17.50;95904.00;;;;5104620;28;20209;-81
2023/10/14 02:46:47;;;;;;;2.40;1.67;;;18.10;62.60;17.60;95907.00;;;;5102186;28;20227;-80
2023/10/14 02:49:18;;;;;;;2.90;1.73;;;18.30;62.30;17.70;95904.00;;;;5087046;28;20195;-80
2023/10/14 02:51:46;;;;;;;2.53;1.87;;;18.30;62.00;17.80;95905.00;;;;5105747;28;20200;-80
2023/10/14 02:54:26;;;;;;;3.07;2.17;;;18.40;61.90;17.90;95904.00;;;;5102290;28;20191;-81
2023/10/14 02:56:59;;;;;;;2.37;1.60;;;18.50;61.90;17.90;95910.00;;;;5104540;28;20223;-80
2023/10/14 02:59:38;;;;;;;2.40;2.00;;;18.60;62.20;18.00;95908.00;;;;5104395;28;20676;-80
2023/10/14 03:02:24;;;;;;;2.07;1.80;;;18.70;62.40;18.10;95909.00;;;;5099218;28;20259;-81
2023/10/14 03:05:08;;;;;;;2.17;1.63;;;18.80;62.50;18.10;95908.00;;;;5097179;28;20213;-81
2023/10/14 03:07:47;;;;;;;1.93;1.80;;;18.80;62.50;18.10;95903.00;;;;5097438;28;20232;-80
2023/10/14 03:10:19;;;;;;;1.80;1.70;;;18.90;62.60;18.10;95903.00;;;;5098179;28;20198;-81
2023/10/14 03:12:50;;;;;;;2.67;1.60;;;18.90;62.50;18.20;95902.00;;;;5098971;28;20718;-80
2023/10/14 03:15:20;;;;;;;4.47;1.93;;;19.00;62.40;18.20;95902.00;;;;5082790;28;20219;-80
2023/10/14 03:17:53;;;;;;;1.70;1.60;;;19.00;62.30;18.20;95911.00;;;;5101512;28;20229;-80
2023/10/14 03:20:37;;;;;;;2.80;1.70;;;19.00;62.50;18.20;95898.00;;;;5099983;28;20270;-81
2023/10/14 03:23:11;;;;;;;2.00;1.80;;;19.00;62.50;18.30;95903.00;;;;5101864;28;20199;-82
2023/10/14 03:25:39;;;;;;;3.73;2.33;;;19.00;62.50;18.30;95914.00;;;;5101874;28;20230;-80
2023/10/14 03:28:14;;;;;;;2.00;1.77;;;19.10;62.70;18.30;95911.00;;;;5101913;28;20536;-80
2023/10/14 03:30:45;;;;;;;2.00;1.80;;;19.10;63.60;18.30;95916.00;;;;5103291;28;20306;-80
2023/10/14 03:33:14;;;;;;;1.83;1.73;;;19.10;62.80;18.30;95912.00;;;;5104143;28;20234;-80
2023/10/14 03:35:43;;;;;;;3.07;1.60;;;19.10;62.80;18.30;95908.00;;;;5103205;28;20219;-81
2023/10/14 03:38:25;;;;;;;1.90;1.63;;;19.10;62.80;18.30;95907.00;;;;5106190;28;20203;-80
2023/10/14 03:41:02;;;;;;;6.47;2.20;;;19.10;62.90;18.30;95909.00;;;;5107958;28;20191;-80
2023/10/14 03:43:43;;;;;;;2.50;2.10;;;19.10;62.90;18.30;95899.00;;;;5106408;28;20203;-80
2023/10/14 03:46:15;;;;;;;2.93;1.60;;;19.20;63.00;18.30;95901.00;;;;5102902;28;20224;-80
2023/10/14 03:48:51;;;;;;;2.03;1.90;;;19.20;62.90;18.30;95896.00;;;;5102026;28;20258;-80
2023/10/14 03:51:24;;;;;;;2.27;1.83;;;19.10;62.90;18.30;95893.00;;;;5100977;28;20252;-80
2023/10/14 03:53:52;;;;;;;1.90;1.70;;;19.10;62.90;18.30;95906.00;;;;5099723;28;20191;-80
2023/10/14 03:56:25;;;;;;;3.20;1.70;;;19.20;62.90;18.30;95905.00;;;;5098657;28;20313;-81
2023/10/14 03:58:57;;;;;;;5.20;1.83;;;19.20;62.70;18.40;95907.00;;;;5096471;28;20191;-81
2023/10/14 04:01:29;;;;;;;2.03;1.93;;;19.20;62.00;18.40;95902.00;;;;5097880;28;20659;-81
2023/10/14 04:03:56;;;;;;;3.07;2.00;;;19.20;61.50;18.50;95905.00;;;;5099890;28;20193;-81
2023/10/14 04:06:23;;;;;;;4.67;1.93;;;19.20;61.20;18.50;95902.00;;;;5099185;28;20215;-82
2023/10/14 04:08:53;;;;;;;3.23;1.60;;;19.20;61.10;18.60;95911.00;;;;5099001;28;20195;-81
2023/10/14 04:11:26;;;;;;;2.20;1.80;;;19.30;61.00;18.60;95912.00;;;;5100197;28;20275;-81
2023/10/14 04:14:04;;;;;;;4.53;1.70;;;19.30;60.60;18.70;95905.00;;;;5100731;28;20230;-80
2023/10/14 04:16:48;;;;;;;2.60;1.80;;;19.40;60.40;18.80;95912.00;;;;5095213;28;20214;-81
2023/10/14 04:19:24;;;;;;;2.70;1.87;;;19.40;60.50;18.80;95920.00;;;;5098422;28;20243;-81
2023/10/14 04:21:58;;;;;;;2.53;1.90;;;19.50;60.50;18.90;95895.00;;;;5101112;28;20202;-81
2023/10/14 04:24:44;;;;;;;2.53;2.30;;;19.60;60.50;18.90;95901.00;;;;5100655;28;20264;-82
2023/10/14 04:27:33;;;;;;;2.00;1.80;;;19.60;60.50;19.00;95894.00;;;;5101581;28;20602;-80
2023/10/14 04:30:11;;;;;;;2.27;1.83;;;19.70;60.40;19.00;95891.00;;;;5096298;28;20718;-80
2023/10/14 04:32:46;;;;;;;2.93;1.80;;;19.70;60.60;19.10;95882.00;;;;5099249;28;20196;-80
2023/10/14 04:35:14;;;;;;;1.80;1.60;;;19.80;60.50;19.10;95888.00;;;;5099924;28;20703;-80
2023/10/14 04:37:51;;;;;;;2.20;1.57;;;19.80;60.80;19.10;95894.00;;;;5100358;28;20268;-80
2023/10/14 04:40:35;;;;;;;1.50;1.30;;;19.80;61.00;19.20;95892.00;;;;5100954;28;20215;-80
2023/10/14 04:43:11;;;;;;;2.87;2.10;;;19.90;60.80;19.20;95893.00;;;;5132288;27;20656;-81
2023/10/14 04:45:45;;;;;;;1.73;1.63;;;19.90;60.90;19.20;95886.00;;;;5105307;28;20222;-80
2023/10/14 04:48:14;;;;;;;2.17;1.77;;;19.90;61.30;19.30;95887.00;;;;5099344;28;20195;-81
2023/10/14 04:50:41;;;;;;;2.13;1.70;;;20.00;61.30;19.30;95877.00;;;;5097292;28;20730;-82
2023/10/14 04:53:13;;;;;;;2.90;1.70;;;20.00;61.30;19.30;95876.00;;;;5094838;28;20204;-82
2023/10/14 04:55:44;;;;;;;2.43;2.00;;;20.00;61.60;19.30;95879.00;;;;5094883;28;20971;-81
2023/10/14 04:58:15;;;;;;;3.80;1.80;;;20.00;61.10;19.30;95875.00;;;;5095773;28;20192;-81
2023/10/14 05:00:45;;;;;;;2.80;1.90;;;20.10;61.00;19.30;95873.00;;;;5095578;28;20198;-81
2023/10/14 05:03:14;;;;;;;3.50;1.73;;;20.10;60.60;19.40;95882.00;;;;5095156;28;20199;-80
2023/10/14 05:05:49;;;;;;;3.33;1.80;;;20.10;60.40;19.40;95882.00;;;;5094185;28;20258;-80
2023/10/14 05:08:21;;;;;;;2.20;1.77;;;20.10;60.50;19.50;95880.00;;;;5097871;28;20209;-81
2023/10/14 05:10:51;;;;;;;3.00;1.80;;;20.10;60.20;19.60;95873.00;;;;5097263;28;20281;-80
2023/10/14 05:13:19;;;;;;;2.00;1.80;;;20.20;60.20;19.70;95878.00;;;;5097467;28;20191;-80
2023/10/14 05:15:53;;;;;;;3.13;2.33;;;20.30;60.00;19.70;95881.00;;;;5098473;28;20229;-81
2023/10/14 05:18:28;;;;;;;2.17;1.80;;;20.30;59.80;19.90;95870.00;;;;5097420;28;20278;-81
2023/10/14 05:21:03;;;;;;;2.63;2.33;;;20.40;59.80;20.00;95873.00;;;;5097339;28;20230;-81
2023/10/14 05:23:33;;;;;;;2.30;2.10;;;20.50;59.80;20.10;95876.00;;;;5097127;28;20213;-81
2023/10/14 05:26:06;;;;;;;4.30;2.20;;;20.60;59.80;20.20;95872.00;;;;5096048;28;20247;-80
2023/10/14 05:28:36;;;;;;;3.30;2.27;;;20.70;59.80;20.40;95879.00;;;;5100734;28;20198;-82
2023/10/14 05:31:05;;;;;;;2.37;1.83;;;20.80;59.80;20.50;95872.00;;;;5099008;28;20202;-81
2023/10/14 05:33:33;;;;;;;3.60;2.60;;;20.90;59.70;20.60;95887.00;;;;5101208;28;20277;-80
2023/10/14 05:36:02;;;;;;;2.90;2.13;;;21.00;59.70;20.70;95882.00;;;;5100469;28;20222;-80
2023/10/14 05:38:30;;;;;;;2.27;2.07;;;21.10;59.60;20.80;95888.00;;;;5097698;28;20215;-81
2023/10/14 05:40:59;;;;;;;2.50;2.23;;;21.30;59.60;21.00;95888.00;;;;5099202;28;20191;-80
2023/10/14 05:43:27;;;;;;;2.40;2.20;;;21.40;59.60;21.10;95897.00;;;;5096572;28;20195;-82
2023/10/14 05:45:55;;;;;;;3.30;1.90;;;21.40;59.60;21.20;95898.00;;;;5100112;28;20246;-81
2023/10/14 05:48:30;;;;;;;4.13;2.10;;;21.60;59.60;21.30;95896.00;;;;5098874;28;20714;-81
2023/10/14 05:50:58;;;;;;;3.33;2.33;;;21.70;59.60;21.40;95896.00;;;;5099924;28;20279;-81
2023/10/14 05:53:28;;;;;;;3.40;2.53;;;21.80;59.50;21.50;95894.00;;;;5126261;27;20606;-81
2023/10/14 05:56:02;;;;;;;3.77;2.50;;;21.90;59.50;21.50;95885.00;;;;5099783;28;20215;-81
2023/10/14 05:58:29;;;;;;;3.50;2.20;;;22.00;59.40;21.60;95886.00;;;;5095785;28;20203;-81
2023/10/14 06:00:57;;;;;;;4.00;2.20;;;22.10;59.30;21.70;95885.00;;;;5101129;28;20199;-82
2023/10/14 06:03:26;;;;;;;2.50;2.10;;;22.10;59.30;21.80;95874.00;;;;5083299;28;20218;-80
2023/10/14 06:05:53;;;;;;;4.70;2.37;;;22.20;59.20;21.90;95900.00;;;;5103401;28;20707;-81
2023/10/14 06:08:20;;;;;;;3.63;2.17;;;22.30;59.20;22.00;95899.00;;;;5101990;28;20288;-80
2023/10/14 06:10:48;;;;;;;2.37;2.13;;;22.40;59.10;22.10;95891.00;;;;5103119;28;20283;-80
2023/10/14 06:13:15;;;;;;;2.80;2.47;;;22.50;59.10;22.20;95910.00;;;;5108939;28;20278;-80
2023/10/14 06:15:44;;;;;;;5.60;2.60;;;22.60;59.10;22.30;95917.00;;;;5106537;28;20241;-80
2023/10/14 06:18:14;;;;;;;2.40;2.20;;;22.60;58.90;22.30;95926.00;;;;5103146;28;20268;-80
2023/10/14 06:20:45;;;;;;;4.00;2.33;;;22.70;58.80;22.40;95924.00;;;;5102574;28;20187;-80
2023/10/14 06:23:13;;;;;;;3.37;2.50;;;22.80;58.80;22.50;95921.00;;;;5096025;28;20200;-80
2023/10/14 06:25:41;;;;;;;3.53;2.20;;;22.90;58.80;22.60;95918.00;;;;5097800;28;20221;-80
2023/10/14 06:28:10;;;;;;;2.90;2.37;;;22.90;58.60;22.60;95922.00;;;;5079402;28;20213;-80
2023/10/14 06:30:37;;;;;;;4.07;2.43;;;23.00;58.60;22.70;95925.00;;;;5095483;28;20245;-81
2023/10/14 06:33:07;;;;;;;3.67;2.17;;;23.10;58.50;22.80;95927.00;;;;5099091;28;20204;-81
2023/10/14 06:35:37;;;;;;;4.57;2.47;;;23.10;58.30;22.80;95944.00;;;;5093232;28;20765;-81
2023/10/14 06:38:09;;;;;;;3.87;2.60;;;23.20;58.10;22.80;95928.00;;;;5097396;28;20199;-80
2023/10/14 06:40:36;;;;;;;5.40;2.67;;;23.20;58.10;22.90;95930.00;;;;5093862;28;20187;-81
2023/10/14 06:43:06;;;;;;;4.50;2.20;;;23.30;58.00;22.90;95937.00;;;;5096375;28;20227;-82
2023/10/14 06:45:35;;;;;;;2.67;2.10;;;23.30;57.90;23.00;95933.00;;;;5092042;28;20311;-78
2023/10/14 06:48:04;;;;;;;5.43;2.50;;;23.40;58.00;23.00;95946.00;;;;5092504;28;20218;-83
2023/10/14 06:50:33;;;;;;;3.33;2.20;;;23.40;57.90;23.10;95925.00;;;;5088073;28;20201;-82
2023/10/14 06:53:01;;;;;;;3.07;2.23;;;23.50;57.90;23.10;95932.00;;;;5088987;28;20201;-84
2023/10/14 06:55:37;;;;;;;2.70;2.47;;;23.50;57.90;23.20;95938.00;;;;5093610;28;20262;-81
2023/10/14 06:58:06;;;;;;;3.67;2.40;;;23.60;57.90;23.20;95933.00;;;;5092823;28;20763;-82
2023/10/14 07:00:37;;;;;;;4.80;2.50;;;23.60;57.90;23.30;95955.00;;;;5094277;28;20205;-81
2023/10/14 07:03:07;;;;;;;2.60;2.03;;;23.60;57.70;23.30;95965.00;;;;5090752;28;20604;-81
2023/10/14 07:05:43;;;;;;;3.83;2.00;;;23.70;57.80;23.40;95967.00;;;;5096909;28;20264;-80
2023/10/14 07:08:11;;;;;;;4.03;2.00;;;23.70;57.70;23.40;95962.00;;;;5095503;28;20242;-83
2023/10/14 07:10:39;;;;;;;2.87;1.90;;;23.80;57.60;23.40;95976.00;;;;5092328;28;20194;-81
2023/10/14 07:13:08;;;;;;;2.50;2.30;;;23.80;57.60;23.50;95986.00;;;;5093598;28;20262;-81
2023/10/14 07:15:38;;;;;;;3.03;2.00;;;23.80;57.60;23.50;95981.00;;;;5095568;28;20588;-83
2023/10/14 07:18:08;;;;;;;2.47;1.60;;;23.90;57.60;23.50;95980.00;;;;5094374;28;20206;-79
2023/10/14 07:20:38;;;;;;;3.93;1.80;;;23.90;57.50;23.50;96000.00;;;;5097819;28;20286;-81
2023/10/14 07:23:08;;;;;;;2.40;1.50;;;23.90;58.00;23.50;96003.00;;;;5095088;28;20697;-82
2023/10/14 07:25:39;;;;;;;4.07;2.07;;;24.00;57.50;23.60;95988.00;;;;5095173;28;20219;-82
2023/10/14 07:28:13;;;;;;;1.90;1.70;;;24.00;57.60;23.60;95988.00;;;;5097374;28;20255;-82
2023/10/14 07:30:46;;;;;;;2.60;1.80;;;24.00;57.50;23.60;95998.00;;;;5099088;28;20286;-81
2023/10/14 07:33:14;;;;;;;2.57;2.13;;;24.00;57.40;23.60;96003.00;;;;5095084;28;20201;-81
2023/10/14 07:35:42;;;;;;;2.50;2.10;;;24.00;57.30;23.60;96005.00;;;;5096575;28;20223;-80
2023/10/14 07:38:10;;;;;;;5.37;1.83;;;24.00;57.30;23.60;96008.00;;;;5094699;28;20208;-82
2023/10/14 07:40:38;;;;;;;2.40;1.80;;;24.00;57.30;23.60;96003.00;;;;5097909;28;20210;-83
2023/10/14 07:43:11;;;;;;;2.47;2.17;;;24.10;57.30;23.60;96021.00;;;;5096755;28;20199;-82
2023/10/14 07:45:43;;;;;;;4.27;1.90;;;24.10;57.30;23.60;96015.00;;;;5096011;28;20238;-83
2023/10/14 07:48:12;;;;;;;2.47;1.70;;;24.10;57.30;23.60;96018.00;;;;5095654;28;20245;-82
2023/10/14 07:50:42;;;;;;;3.00;1.80;;;24.00;57.20;23.60;96016.00;;;;5095088;28;20670;-82
2023/10/14 07:53:13;;;;;;;3.63;2.23;;;24.10;57.20;23.60;96021.00;;;;5090602;28;20203;-82
2023/10/14 07:55:41;;;;;;;2.97;1.73;;;24.00;57.10;23.60;96013.00;;;;5094720;28;20728;-83
2023/10/14 07:58:11;;;;;;;2.47;1.67;;;24.10;57.20;23.60;96010.00;;;;5094640;28;20290;-83
2023/10/14 08:00:40;;;;;;;3.17;1.60;;;24.10;57.30;23.60;96015.00;;;;5095048;28;20284;-83
2023/10/14 08:03:09;;;;;;;3.53;1.93;;;24.10;57.30;23.60;96021.00;;;;5077143;28;20199;-81
2023/10/14 08:05:38;;;;;;;1.87;1.50;;;24.00;57.40;23.60;96020.00;;;;5125813;27;20229;-83
2023/10/14 08:08:09;;;;;;;2.83;2.00;;;24.10;57.40;23.60;96021.00;;;;5095283;28;20221;-84
2023/10/14 08:10:36;;;;;;;1.60;1.33;;;24.10;57.60;23.70;96026.00;;;;5092598;28;20196;-84
2023/10/14 08:13:05;;;;;;;2.23;1.90;;;24.10;57.60;23.70;96019.00;;;;5122179;28;20188;-84
2023/10/14 08:15:35;;;;;;;2.03;1.60;;;24.10;57.50;23.70;96025.00;;;;5099645;28;20579;-81
2023/10/14 08:18:04;;;;;;;4.17;2.63;;;24.10;57.40;23.70;96034.00;;;;5105463;28;20194;-81
2023/10/14 08:20:32;;;;;;;2.13;1.40;;;24.10;57.50;23.70;96034.00;;;;5103159;28;20198;-82
2023/10/14 08:23:00;;;;;;;2.90;1.93;;;24.10;57.50;23.70;96038.00;;;;5095198;28;20191;-82
2023/10/14 08:25:28;;;;;;;2.57;1.90;;;24.10;57.50;23.70;96033.00;;;;5099654;28;20262;-81
2023/10/14 08:27:57;;;;;;;2.80;1.53;;;24.10;57.50;23.70;96024.00;;;;5102353;28;20225;-83
2023/10/14 08:30:25;;;;;;;3.50;1.80;;;24.10;57.50;23.70;96025.00;;;;5101389;28;20227;-82
2023/10/14 08:32:53;;;;;;;2.83;1.93;;;24.10;57.60;23.70;96021.00;;;;5100760;28;20692;-83
2023/10/14 08:35:27;;;;;;;2.33;1.60;;;24.10;57.60;23.70;96023.00;;;;5102515;28;20226;-83
2023/10/14 08:37:59;;;;;;;2.00;1.50;;;24.20;57.60;23.80;96031.00;;;;5103900;28;20196;-83
2023/10/14 08:40:29;;;;;;;4.37;1.97;;;24.20;57.70;23.80;96025.00;;;;5108023;28;20198;-83
2023/10/14 08:43:05;;;;;;;2.07;1.67;;;24.20;57.60;23.80;96035.00;;;;5112916;28;20195;-82
2023/10/14 08:45:36;;;;;;;1.93;1.70;;;24.20;57.60;23.80;96032.00;;;;5110470;28;20226;-83
2023/10/14 08:48:08;;;;;;;2.37;1.60;;;24.20;57.50;23.80;96039.00;;;;5109233;28;20234;-83
2023/10/14 08:50:39;;;;;;;2.00;1.77;;;24.20;57.50;23.80;96046.00;;;;5098040;28;20199;-84
2023/10/14 08:53:09;;;;;;;2.70;1.50;;;24.20;57.50;23.80;96039.00;;;;5092867;28;20222;-84
2023/10/14 08:55:39;;;;;;;3.50;1.90;;;24.30;57.60;23.80;96034.00;;;;5091142;28;20219;-84
2023/10/14 08:58:13;;;;;;;2.63;1.70;;;24.20;57.50;23.80;96044.00;;;;5097289;28;20667;-83
2023/10/14 09:00:43;;;;;;;2.60;1.60;;;24.30;57.70;23.80;96045.00;;;;5097133;28;20556;-84
2023/10/14 09:03:14;;;;;;;3.03;1.70;;;24.30;57.70;23.80;96052.00;;;;5095516;28;20651;-82
2023/10/14 09:05:44;;;;;;;4.10;2.10;;;24.30;57.80;23.80;96053.00;;;;5096075;28;20699;-83
2023/10/14 09:08:14;;;;;;;3.53;1.83;;;24.30;57.90;23.90;96053.00;;;;5095136;28;20223;-80
2023/10/14 09:10:43;;;;;;;3.07;1.70;;;24.30;57.80;23.90;96053.00;;;;5093607;28;20199;-83
2023/10/14 09:13:12;;;;;;;2.20;1.57;;;24.30;57.80;23.90;96059.00;;;;5095042;28;20203;-82
2023/10/14 09:15:42;;;;;;;2.73;1.63;;;24.30;57.90;23.90;96054.00;;;;5097704;28;20219;-82
2023/10/14 09:18:17;;;;;;;3.20;2.03;;;24.30;58.00;23.90;96057.00;;;;5113196;28;20209;-81
2023/10/14 09:20:45;;;;;;;2.57;1.93;;;24.30;58.00;23.90;96062.00;;;;5096914;28;20193;-82
2023/10/14 09:23:32;;;;;;;2.10;1.93;;;24.30;57.80;23.90;96072.00;;;;5095685;28;20219;-82
2023/10/14 09:26:01;;;;;;;3.13;2.30;;;24.30;57.90;23.90;96059.00;;;;5092549;28;20215;-82
2023/10/14 09:28:32;;;;;;;2.73;2.00;;;24.40;57.80;24.00;96062.00;;;;5128659;27;20242;-82
2023/10/14 09:31:02;;;;;;;3.27;1.73;;;24.40;58.00;24.00;96054.00;;;;5092025;28;20249;-85
2023/10/14 09:33:34;;;;;;;2.20;2.00;;;24.40;58.00;24.00;96068.00;;;;5095605;28;20286;-84
2023/10/14 09:36:05;;;;;;;3.27;2.20;;;24.40;57.90;24.10;96072.00;;;;5091942;28;20237;-84
2023/10/14 09:38:34;;;;;;;3.80;2.00;;;24.40;57.90;24.10;96068.00;;;;5098209;28;20206;-84
2023/10/14 09:41:03;;;;;;;2.43;2.10;;;24.40;57.90;24.10;96067.00;;;;5081476;28;20192;-82
2023/10/14 09:43:34;;;;;;;3.40;2.23;;;24.50;57.90;24.20;96068.00;;;;5097913;28;20195;-84
2023/10/14 09:46:04;;;;;;;3.13;2.20;;;24.60;57.80;24.20;96065.00;;;;5092670;28;20221;-84
2023/10/14 09:48:35;;;;;;;2.30;1.97;;;24.50;57.60;24.20;96072.00;;;;5094003;28;20233;-82
2023/10/14 09:51:06;;;;;;;3.47;2.13;;;24.60;57.50;24.30;96065.00;;;;5094126;28;20191;-85
2023/10/14 09:53:35;;;;;;;4.17;2.13;;;24.60;57.50;24.30;96071.00;;;;5090471;28;20243;-84
2023/10/14 09:56:06;;;;;;;3.07;2.40;;;24.70;57.40;24.30;96068.00;;;;5124235;27;20686;-84
2023/10/14 09:58:35;;;;;;;3.00;1.97;;;24.70;57.10;24.30;96069.00;;;;5096742;28;20282;-85
2023/10/14 10:01:05;;;;;;;3.37;2.00;;;24.70;57.10;24.30;96064.00;;;;5092551;28;20257;-84
2023/10/14 10:03:39;;;;;;;5.30;2.47;;;24.70;56.90;24.30;96070.00;;;;5100224;28;20195;-84
2023/10/14 10:06:35;;;;;;;4.30;2.10;;;24.70;57.00;24.30;96075.00;;;;5098411;28;20228;-82
2023/10/14 10:10:00;;;;;;;2.57;1.90;;;24.70;57.10;24.30;96071.00;;;;5091304;28;20230;-83
2023/10/14 10:12:31;;;;;;;3.90;2.40;;;24.70;57.20;24.30;96070.00;;;;5072966;28;20231;-85
2023/10/14 10:15:03;;;;;;;4.30;2.33;;;24.80;57.10;24.40;96069.00;;;;5091881;28;20223;-83
2023/10/14 10:17:30;;;;;;;3.47;2.23;;;24.80;57.20;24.50;96082.00;;;;5092307;28;20199;-85
2023/10/14 10:20:17;;;;;;;7.30;2.60;;;24.80;57.20;24.50;96070.00;;;;5093168;28;20197;-85
2023/10/14 10:22:50;;;;;;;3.03;2.07;;;24.90;56.80;24.50;96062.00;;;;5099648;28;20281;-85
2023/10/14 10:25:19;;;;;;;3.13;2.57;;;24.90;56.70;24.50;96053.00;;;;5096174;28;20211;-85
2023/10/14 10:27:49;;;;;;;3.93;1.90;;;24.90;56.60;24.50;96056.00;;;;5096610;27;20226;-84
2023/10/14 10:30:25;;;;;;;4.13;2.20;;;24.90;56.60;24.50;96059.00;;;;5099353;28;20240;-86
2023/10/14 10:32:52;;;;;;;3.40;2.40;;;24.90;56.60;24.50;96057.00;;;;5102800;28;20199;-84
2023/10/14 10:35:21;;;;;;;2.97;2.70;;;24.90;56.60;24.50;96057.00;;;;5095499;28;20211;-85
2023/10/14 10:37:53;;;;;;;2.60;2.40;;;24.90;56.50;24.50;96063.00;;;;5092987;28;20680;-84
2023/10/14 10:40:25;;;;;;;4.90;2.13;;;24.90;56.30;24.50;96060.00;;;;5091741;28;20196;-84
2023/10/14 10:42:56;;;;;;;2.47;2.10;;;24.90;56.30;24.50;96062.00;;;;5094464;28;20227;-84
2023/10/14 10:45:29;;;;;;;3.57;1.87;;;24.90;56.10;24.50;96062.00;;;;5094612;28;20245;-85
2023/10/14 10:48:00;;;;;;;2.33;2.10;;;24.90;56.10;24.50;96067.00;;;;5093715;28;20215;-84
2023/10/14 10:50:35;;;;;;;2.40;2.20;;;24.90;56.00;24.50;96061.00;;;;5092055;28;20278;-86
2023/10/14 10:53:22;;;;;;;4.27;2.40;;;24.90;55.90;24.40;96054.00;;;;5089196;28;20823;-86
2023/10/14 10:55:52;;;;;;;2.40;1.80;;;24.90;55.70;24.40;96049.00;;;;5093341;28;20211;-85
2023/10/14 10:58:21;;;;;;;2.57;1.70;;;24.90;56.40;24.40;96062.00;;;;5095841;28;20191;-84
2023/10/14 11:00:51;;;;;;;4.93;1.67;;;24.90;55.60;24.40;96043.00;;;;5100544;28;20571;-84
2023/10/14 11:03:18;;;;;;;5.20;2.30;;;24.80;55.40;24.30;96031.00;;;;5106689;28;20263;-84
2023/10/14 11:05:48;;;;;;;3.53;2.37;;;24.80;55.50;24.30;96029.00;;;;5095562;28;20214;-83
2023/10/14 11:08:16;;;;;;;4.07;2.63;;;24.80;55.60;24.30;96042.00;;;;5109010;28;20256;-83
2023/10/14 11:10:45;;;;;;;2.40;2.20;;;24.80;55.70;24.30;96035.00;;;;5106823;28;20187;-86
2023/10/14 11:13:16;;;;;;;2.30;1.80;;;24.70;55.70;24.40;96019.00;;;;5103014;28;20260;-84
2023/10/14 11:15:46;;;;;;;2.20;2.00;;;24.70;55.50;24.30;96016.00;;;;5091100;28;20600;-83